createdAt,value
2018-10-07T00:01:30.289Z,16.13
2018-10-07T00:03:59.365Z,16.06
2018-10-07T00:06:28.225Z,15.99
2018-10-07T00:08:56.954Z,15.94
2018-10-07T00:11:25.784Z,15.90
2018-10-07T00:13:54.344Z,15.86
2018-10-07T00:16:28.900Z,15.81
2018-10-07T00:18:57.857Z,15.76
2018-10-07T00:21:26.716Z,15.59
2018-10-07T00:23:55.372Z,15.63
2018-10-07T00:26:24.297Z,15.57
2018-10-07T00:28:52.780Z,15.52
2018-10-07T00:31:21.494Z,15.33
2018-10-07T00:33:50.576Z,15.38
2018-10-07T00:36:19.196Z,15.33
2018-10-07T00:38:47.698Z,15.32
2018-10-07T00:41:16.888Z,15.30
2018-10-07T00:43:45.724Z,15.29
2018-10-07T00:46:14.826Z,15.30
2018-10-07T00:48:43.918Z,15.34
2018-10-07T00:51:13.225Z,15.37
2018-10-07T00:53:42.048Z,15.40
2018-10-07T00:56:10.989Z,15.42
2018-10-07T00:58:39.604Z,15.45
2018-10-07T01:01:08.165Z,15.47
2018-10-07T01:03:37.013Z,15.45
2018-10-07T01:06:05.512Z,15.46
2018-10-07T01:08:34.021Z,15.44
2018-10-07T01:11:03.031Z,15.41
2018-10-07T01:13:31.728Z,15.39
2018-10-07T01:16:00.540Z,15.37
2018-10-07T01:18:30.039Z,15.34
2018-10-07T01:20:58.713Z,15.32
2018-10-07T01:23:27.511Z,15.31
2018-10-07T01:25:56.511Z,15.28
2018-10-07T01:28:25.612Z,15.25
2018-10-07T01:30:54.092Z,15.09
2018-10-07T01:33:23.223Z,15.18
2018-10-07T01:35:52.048Z,14.94
2018-10-07T01:38:20.621Z,15.13
2018-10-07T01:40:49.488Z,14.99
2018-10-07T01:43:18.320Z,15.07
2018-10-07T01:45:46.995Z,15.04
2018-10-07T01:48:15.901Z,15.02
2018-10-07T01:50:44.464Z,15.00
2018-10-07T01:53:13.306Z,14.99
2018-10-07T01:55:42.567Z,14.97
2018-10-07T01:58:11.233Z,14.94
2018-10-07T02:00:40.118Z,14.94
2018-10-07T02:03:08.898Z,14.93
2018-10-07T02:05:38.113Z,14.73
2018-10-07T02:08:06.770Z,14.91
2018-10-07T02:10:35.554Z,14.89
2018-10-07T02:13:04.380Z,14.87
2018-10-07T02:15:33.289Z,14.85
2018-10-07T02:18:02.234Z,14.84
2018-10-07T02:20:31.313Z,14.82
2018-10-07T02:23:00.951Z,14.81
2018-10-07T02:25:29.666Z,14.81
2018-10-07T02:27:58.448Z,14.81
2018-10-07T02:30:27.069Z,14.83
2018-10-07T02:32:56.174Z,14.81
2018-10-07T02:35:24.794Z,14.82
2018-10-07T02:37:53.564Z,14.80
2018-10-07T02:40:46.121Z,14.78
2018-10-07T02:43:14.813Z,14.75
2018-10-07T02:45:43.712Z,14.70
2018-10-07T02:48:12.212Z,14.55
2018-10-07T02:50:41.637Z,14.63
2018-10-07T02:53:10.263Z,14.57
2018-10-07T02:55:39.323Z,14.49
2018-10-07T03:00:58.548Z,14.39
2018-10-07T03:03:27.092Z,14.36
2018-10-07T03:05:55.768Z,14.36
2018-10-07T03:08:24.662Z,14.24
2018-10-07T03:10:53.466Z,14.32
2018-10-07T03:13:22.220Z,14.33
2018-10-07T03:15:51.385Z,14.33
2018-10-07T03:18:20.022Z,14.35
2018-10-07T03:20:48.689Z,14.34
2018-10-07T03:23:17.741Z,14.22
2018-10-07T03:25:46.430Z,14.32
2018-10-07T03:28:15.109Z,14.32
2018-10-07T03:30:44.032Z,14.30
2018-10-07T03:33:12.680Z,14.27
2018-10-07T03:35:41.364Z,14.24
2018-10-07T03:38:10.309Z,14.22
2018-10-07T03:40:38.781Z,14.21
2018-10-07T03:43:07.496Z,14.20
2018-10-07T03:45:36.737Z,14.18
2018-10-07T03:48:05.424Z,14.15
2018-10-07T03:50:48.734Z,14.00
2018-10-07T03:53:17.749Z,14.08
2018-10-07T03:55:46.269Z,14.07
2018-10-07T03:58:14.976Z,13.96
2018-10-07T04:00:43.599Z,14.05
2018-10-07T04:03:12.268Z,14.04
2018-10-07T04:05:40.663Z,14.01
2018-10-07T04:08:09.656Z,13.99
2018-10-07T04:10:38.109Z,13.98
2018-10-07T04:13:06.856Z,13.97
2018-10-07T04:15:36.177Z,13.95
2018-10-07T04:18:04.857Z,13.63
2018-10-07T04:20:33.557Z,13.90
2018-10-07T04:23:02.484Z,13.78
2018-10-07T04:25:31.924Z,13.85
2018-10-07T04:28:00.570Z,13.81
2018-10-07T04:30:29.770Z,13.76
2018-10-07T04:32:58.565Z,13.69
2018-10-07T04:35:27.233Z,13.64
2018-10-07T04:37:55.949Z,13.61
2018-10-07T04:40:24.665Z,13.58
2018-10-07T04:42:53.484Z,13.55
2018-10-07T04:45:22.434Z,13.54
2018-10-07T04:47:51.060Z,13.51
2018-10-07T04:50:19.388Z,13.48
2018-10-07T04:52:48.444Z,13.46
2018-10-07T04:55:16.918Z,13.43
2018-10-07T04:57:45.429Z,13.42
2018-10-07T05:00:14.326Z,13.45
2018-10-07T05:02:42.815Z,13.26
2018-10-07T05:05:11.260Z,13.37
2018-10-07T05:07:55.148Z,13.40
2018-10-07T05:10:44.148Z,13.49
2018-10-07T05:13:13.995Z,13.48
2018-10-07T05:15:42.676Z,13.47
2018-10-07T05:18:17.538Z,13.48
2018-10-07T05:20:46.664Z,13.48
2018-10-07T05:23:15.269Z,13.49
2018-10-07T05:25:43.976Z,13.39
2018-10-07T05:28:12.874Z,13.50
2018-10-07T05:30:41.573Z,13.38
2018-10-07T05:33:10.191Z,13.50
2018-10-07T05:35:38.901Z,13.50
2018-10-07T05:38:07.400Z,13.40
2018-10-07T05:40:35.917Z,13.50
2018-10-07T05:43:04.805Z,13.51
2018-10-07T05:45:37.331Z,13.52
2018-10-07T05:48:06.009Z,13.54
2018-10-07T05:50:34.913Z,13.56
2018-10-07T05:53:03.417Z,13.57
2018-10-07T05:55:31.905Z,13.59
2018-10-07T05:58:02.653Z,13.57
2018-10-07T06:00:31.870Z,13.47
2018-10-07T06:03:21.856Z,13.58
2018-10-07T06:05:51.926Z,13.58
2018-10-07T06:08:21.285Z,13.60
2018-10-07T06:10:49.814Z,13.64
2018-10-07T06:13:18.957Z,13.64
2018-10-07T06:15:47.485Z,13.59
2018-10-07T06:18:16.333Z,13.20
2018-10-07T06:20:45.081Z,13.64
2018-10-07T06:23:13.925Z,13.68
2018-10-07T06:25:42.459Z,13.73
2018-10-07T06:28:11.499Z,13.75
2018-10-07T06:30:40.375Z,13.77
2018-10-07T06:33:08.906Z,13.79
2018-10-07T06:35:37.998Z,13.84
2018-10-07T06:38:10.385Z,13.89
2018-10-07T06:40:39.441Z,13.97
2018-10-07T06:43:08.150Z,13.93
2018-10-07T06:45:37.101Z,13.90
2018-10-07T06:48:06.088Z,14.19
2018-10-07T06:50:34.445Z,14.30
2018-10-07T06:53:03.085Z,14.35
2018-10-07T06:55:53.301Z,14.40
2018-10-07T06:58:21.929Z,14.43
2018-10-07T07:00:50.753Z,13.91
2018-10-07T07:03:19.434Z,14.53
2018-10-07T07:05:47.736Z,14.58
2018-10-07T07:08:29.433Z,14.65
2018-10-07T07:10:57.700Z,14.68
2018-10-07T07:13:26.225Z,14.61
2018-10-07T07:15:54.808Z,14.77
2018-10-07T07:18:23.410Z,14.57
2018-10-07T07:20:51.682Z,14.86
2018-10-07T07:23:20.784Z,14.94
2018-10-07T07:25:49.392Z,14.99
2018-10-07T07:28:17.680Z,15.09
2018-10-07T07:30:46.270Z,15.15
2018-10-07T07:33:15.076Z,15.16
2018-10-07T07:35:44.668Z,15.19
2018-10-07T07:38:13.271Z,15.14
2018-10-07T07:40:41.976Z,15.26
2018-10-07T07:43:10.357Z,15.10
2018-10-07T07:45:38.937Z,15.29
2018-10-07T07:48:12.412Z,15.28
2018-10-07T07:50:40.705Z,15.28
2018-10-07T07:53:09.245Z,15.21
2018-10-07T07:55:38.396Z,14.69
2018-10-07T07:58:07.414Z,15.27
2018-10-07T08:00:36.114Z,14.99
2018-10-07T08:03:04.963Z,15.31
2018-10-07T08:05:37.594Z,15.42
2018-10-07T08:08:13.053Z,15.50
2018-10-07T08:10:41.456Z,15.59
2018-10-07T08:13:10.047Z,15.77
2018-10-07T08:15:38.322Z,15.81
2018-10-07T08:18:08.114Z,15.74
2018-10-07T08:20:36.989Z,15.99
2018-10-07T08:23:10.145Z,16.04
2018-10-07T08:25:38.794Z,16.18
2018-10-07T08:28:08.803Z,16.20
2018-10-07T08:30:37.296Z,16.16
2018-10-07T08:33:06.368Z,16.20
2018-10-07T08:35:35.380Z,16.40
2018-10-07T08:38:05.065Z,16.48
2018-10-07T08:40:33.649Z,16.58
2018-10-07T08:43:05.201Z,16.66
2018-10-07T08:45:33.872Z,16.68
2018-10-07T08:48:02.679Z,16.59
2018-10-07T08:50:31.311Z,16.46
2018-10-07T08:52:59.576Z,16.13
2018-10-07T08:55:27.869Z,16.26
2018-10-07T08:57:56.462Z,16.17
2018-10-07T09:00:24.904Z,16.24
2018-10-07T09:02:54.117Z,16.24
2018-10-07T09:05:22.966Z,14.95
2018-10-07T09:07:53.499Z,14.92
2018-10-07T09:10:22.367Z,15.49
2018-10-07T09:12:51.394Z,16.19
2018-10-07T09:15:20.121Z,16.16
2018-10-07T09:17:48.816Z,16.16
2018-10-07T09:20:18.142Z,16.18
2018-10-07T09:22:46.869Z,16.23
2018-10-07T09:25:15.521Z,16.25
2018-10-07T09:27:45.321Z,15.62
2018-10-07T09:30:13.825Z,14.86
2018-10-07T09:32:42.379Z,16.00
2018-10-07T09:35:11.061Z,16.15
2018-10-07T09:37:39.738Z,16.11
2018-10-07T09:40:08.359Z,16.12
2018-10-07T09:42:37.668Z,16.10
2018-10-07T09:45:06.286Z,16.09
2018-10-07T09:47:35.134Z,16.01
2018-10-07T09:50:06.961Z,16.15
2018-10-07T09:52:36.519Z,15.70
2018-10-07T09:55:05.329Z,16.25
2018-10-07T09:57:34.333Z,16.26
2018-10-07T10:00:04.184Z,16.18
2018-10-07T10:02:32.497Z,16.32
2018-10-07T10:05:01.147Z,16.39
2018-10-07T10:07:30.530Z,16.49
2018-10-07T10:09:59.440Z,16.58
2018-10-07T10:12:38.430Z,16.58
2018-10-07T10:15:07.102Z,16.60
2018-10-07T10:17:35.998Z,16.59
2018-10-07T10:20:05.957Z,16.44
2018-10-07T10:22:41.588Z,16.41
2018-10-07T10:25:21.376Z,16.41
2018-10-07T10:27:58.816Z,16.34
2018-10-07T10:30:44.953Z,16.25
2018-10-07T10:33:53.362Z,16.22
2018-10-07T10:36:36.643Z,16.20
2018-10-07T10:40:20.905Z,16.21
2018-10-07T10:42:52.350Z,16.18
2018-10-07T10:45:34.562Z,16.04
2018-10-07T10:50:13.296Z,15.94
2018-10-07T10:52:51.390Z,15.79
2018-10-07T10:55:28.543Z,15.64
2018-10-07T10:58:04.185Z,15.56
2018-10-07T11:01:27.432Z,15.43
2018-10-07T11:04:21.342Z,15.37
2018-10-07T11:06:55.393Z,15.23
2018-10-07T11:10:06.792Z,15.28
2018-10-07T11:14:57.501Z,15.22
2018-10-07T11:17:44.133Z,14.88
2018-10-07T11:20:21.361Z,14.75
2018-10-07T11:23:12.930Z,14.78
2018-10-07T11:25:56.068Z,14.75
2018-10-07T11:28:40.288Z,14.56
2018-10-07T11:31:22.566Z,14.59
2018-10-07T11:33:59.828Z,14.59
2018-10-07T11:36:42.300Z,14.52
2018-10-07T11:39:25.857Z,14.33
2018-10-07T11:42:03.680Z,14.21
2018-10-07T11:45:38.667Z,14.16
2018-10-07T11:50:19.505Z,14.28
2018-10-07T11:53:02.393Z,14.09
2018-10-07T11:55:31.203Z,14.15
2018-10-07T11:57:59.569Z,14.12
2018-10-07T12:00:28.052Z,14.10
2018-10-07T12:02:56.696Z,14.03
2018-10-07T12:05:24.980Z,13.91
2018-10-07T12:07:53.350Z,14.09
2018-10-07T12:10:22.186Z,14.00
2018-10-07T12:12:50.476Z,13.94
2018-10-07T12:15:18.851Z,13.75
2018-10-07T12:17:47.576Z,13.83
2018-10-07T12:20:15.894Z,13.71
2018-10-07T12:22:44.197Z,13.70
2018-10-07T12:25:12.833Z,13.79
2018-10-07T12:27:41.113Z,13.77
2018-10-07T12:30:09.380Z,13.78
2018-10-07T12:32:37.983Z,13.71
2018-10-07T12:35:06.343Z,13.70
2018-10-07T12:37:34.655Z,13.60
2018-10-07T12:40:03.521Z,13.75
2018-10-07T12:42:31.832Z,13.79
2018-10-07T12:45:00.149Z,13.59
2018-10-07T12:47:28.869Z,13.86
2018-10-07T12:49:57.189Z,13.94
2018-10-07T12:52:25.476Z,14.01
2018-10-07T12:54:54.084Z,14.00
2018-10-07T12:57:22.389Z,14.03
2018-10-07T12:59:50.686Z,14.08
2018-10-07T13:02:19.306Z,14.06
2018-10-07T13:04:47.573Z,14.12
2018-10-07T13:07:15.856Z,14.23
2018-10-07T13:09:44.492Z,14.41
2018-10-07T13:12:12.753Z,14.48
2018-10-07T13:14:41.252Z,14.30
2018-10-07T13:17:09.809Z,14.54
2018-10-07T13:19:38.441Z,14.37
2018-10-07T13:22:07.020Z,14.38
2018-10-07T13:24:38.057Z,14.35
2018-10-07T13:27:06.341Z,14.36
2018-10-07T13:29:34.656Z,14.38
2018-10-07T13:32:03.229Z,14.33
2018-10-07T13:34:31.548Z,14.13
2018-10-07T13:36:59.866Z,14.08
2018-10-07T13:39:28.458Z,14.18
2018-10-07T13:41:56.734Z,14.18
2018-10-07T13:44:25.032Z,14.19
2018-10-07T13:46:53.617Z,14.04
2018-10-07T13:49:21.876Z,14.02
2018-10-07T13:51:50.132Z,14.01
2018-10-07T13:54:18.728Z,13.96
2018-10-07T13:56:49.838Z,13.93
2018-10-07T13:59:19.068Z,13.23
2018-10-07T14:01:47.952Z,13.84
2018-10-07T14:04:16.776Z,13.70
2018-10-07T14:06:45.055Z,13.77
2018-10-07T14:09:13.644Z,13.75
2018-10-07T14:11:41.970Z,13.71
2018-10-07T14:14:11.160Z,13.67
2018-10-07T14:16:39.881Z,13.53
2018-10-07T14:19:08.373Z,13.53
2018-10-07T14:21:37.163Z,13.60
2018-10-07T14:24:06.116Z,13.59
2018-10-07T14:26:34.459Z,13.48
2018-10-07T14:29:02.752Z,13.39
2018-10-07T14:31:31.407Z,13.27
2018-10-07T14:33:59.736Z,13.44
2018-10-07T14:36:28.061Z,13.36
2018-10-07T14:38:56.716Z,13.29
2018-10-07T14:41:25.421Z,13.14
2018-10-07T14:43:54.218Z,12.92
2018-10-07T14:46:23.938Z,13.16
2018-10-07T14:48:52.297Z,13.29
2018-10-07T14:51:20.830Z,13.32
2018-10-07T14:53:49.718Z,13.16
2018-10-07T14:56:18.376Z,13.21
2018-10-07T14:58:46.640Z,13.31
2018-10-07T15:01:15.342Z,13.32
2018-10-07T15:03:43.884Z,13.36
2018-10-07T15:06:12.277Z,13.33
2018-10-07T15:08:41.090Z,13.30
2018-10-07T15:11:09.725Z,13.16
2018-10-07T15:13:38.712Z,13.09
2018-10-07T15:16:07.696Z,13.10
2018-10-07T15:18:38.415Z,13.08
2018-10-07T15:21:06.844Z,12.84
2018-10-07T15:23:36.465Z,12.89
2018-10-07T15:26:05.939Z,12.97
2018-10-07T15:28:34.741Z,12.84
2018-10-07T15:31:04.000Z,12.75
2018-10-07T15:33:32.945Z,12.53
2018-10-07T15:36:01.657Z,12.60
2018-10-07T15:38:31.289Z,12.68
2018-10-07T15:41:00.077Z,12.66
2018-10-07T15:43:28.476Z,12.66
2018-10-07T15:45:57.430Z,12.67
2018-10-07T15:48:26.481Z,12.70
2018-10-07T15:50:55.946Z,12.74
2018-10-07T15:53:24.682Z,12.74
2018-10-07T15:55:53.040Z,12.74
2018-10-07T15:58:21.382Z,12.66
2018-10-07T16:00:50.001Z,12.73
2018-10-07T16:03:18.537Z,12.71
2018-10-07T16:05:46.909Z,12.73
2018-10-07T16:08:15.553Z,12.61
2018-10-07T16:10:44.210Z,12.69
2018-10-07T16:13:12.600Z,12.67
2018-10-07T16:15:41.816Z,12.31
2018-10-07T16:18:10.109Z,12.52
2018-10-07T16:20:38.594Z,12.58
2018-10-07T16:23:07.946Z,12.34
2018-10-07T16:25:36.244Z,12.56
2018-10-07T16:28:04.549Z,12.49
2018-10-07T16:30:33.185Z,12.54
2018-10-07T16:33:01.542Z,12.51
2018-10-07T16:35:29.996Z,12.51
2018-10-07T16:37:58.595Z,12.50
2018-10-07T16:40:26.920Z,12.50
2018-10-07T16:42:55.189Z,12.51
2018-10-07T16:45:24.142Z,12.53
2018-10-07T16:47:52.628Z,12.53
2018-10-07T16:50:21.088Z,12.54
2018-10-07T16:52:50.884Z,12.22
2018-10-07T16:55:19.838Z,12.27
2018-10-07T16:57:48.102Z,12.35
2018-10-07T17:00:16.669Z,12.52
2018-10-07T17:02:44.965Z,12.52
2018-10-07T17:05:18.385Z,12.23
2018-10-07T17:07:49.248Z,12.54
2018-10-07T17:10:26.720Z,12.54
2018-10-07T17:12:56.025Z,12.41
2018-10-07T17:15:24.381Z,12.44
2018-10-07T17:17:52.810Z,12.20
2018-10-07T17:20:21.520Z,12.46
2018-10-07T17:22:49.785Z,12.36
2018-10-07T17:25:18.073Z,12.47
2018-10-07T17:28:10.559Z,12.46
2018-10-07T17:30:38.880Z,12.43
2018-10-07T17:33:07.463Z,12.44
2018-10-07T17:35:35.881Z,12.08
2018-10-07T17:38:04.268Z,12.47
2018-10-07T17:40:32.992Z,12.50
2018-10-07T17:43:01.717Z,12.32
2018-10-07T17:45:30.280Z,12.21
2018-10-07T17:47:59.195Z,12.50
2018-10-07T17:50:27.447Z,12.41
2018-10-07T17:52:56.120Z,12.52
2018-10-07T17:55:25.181Z,12.13
2018-10-07T17:58:07.620Z,12.54
2018-10-07T18:00:36.349Z,12.14
2018-10-07T18:03:05.593Z,12.33
2018-10-07T18:05:34.174Z,12.36
2018-10-07T18:08:03.601Z,12.54
2018-10-07T18:10:31.953Z,12.57
2018-10-07T18:13:00.276Z,12.39
2018-10-07T18:15:29.046Z,12.61
2018-10-07T18:17:57.897Z,12.57
2018-10-07T18:20:27.429Z,12.58
2018-10-07T18:23:12.662Z,12.21
2018-10-07T18:25:41.392Z,12.60
2018-10-07T18:28:10.760Z,12.29
2018-10-07T18:30:39.090Z,12.48
2018-10-07T18:33:09.343Z,12.57
2018-10-07T18:35:38.961Z,12.57
2018-10-07T18:38:07.625Z,12.43
2018-10-07T18:40:36.121Z,12.42
2018-10-07T18:43:04.825Z,12.52
2018-10-07T18:45:33.176Z,12.43
2018-10-07T18:48:01.749Z,12.40
2018-10-07T18:50:30.360Z,12.48
2018-10-07T18:52:58.889Z,12.26
2018-10-07T18:55:27.212Z,12.43
2018-10-07T18:57:57.016Z,12.39
2018-10-07T19:00:25.748Z,12.25
2018-10-07T19:02:54.755Z,11.91
2018-10-07T19:05:25.157Z,12.05
2018-10-07T19:07:54.154Z,11.99
2018-10-07T19:10:22.992Z,11.71
2018-10-07T19:12:51.766Z,12.02
2018-10-07T19:15:20.381Z,11.95
2018-10-07T19:17:49.133Z,11.88
2018-10-07T19:20:17.689Z,11.79
2018-10-07T19:22:45.986Z,11.72
2018-10-07T19:25:14.395Z,11.66
2018-10-07T19:27:43.045Z,11.40
2018-10-07T19:30:11.496Z,11.54
2018-10-07T19:32:40.368Z,11.37
2018-10-07T19:35:09.342Z,11.32
2018-10-07T19:37:38.389Z,11.38
2018-10-07T19:40:08.305Z,11.11
2018-10-07T19:42:37.024Z,11.25
2018-10-07T19:45:05.392Z,11.08
2018-10-07T19:47:33.748Z,11.04
2018-10-07T19:50:03.041Z,10.92
2018-10-07T19:52:31.617Z,11.05
2018-10-07T19:55:00.408Z,10.79
2018-10-07T19:57:30.434Z,10.87
2018-10-07T19:59:58.968Z,10.96
2018-10-07T20:02:27.413Z,10.93
2018-10-07T20:04:56.386Z,10.91
2018-10-07T20:07:24.768Z,10.89
2018-10-07T20:09:53.227Z,10.57
2018-10-07T20:12:21.945Z,10.75
2018-10-07T20:14:50.285Z,10.54
2018-10-07T20:17:18.567Z,10.81
2018-10-07T20:19:47.194Z,10.77
2018-10-07T20:22:17.112Z,10.76
2018-10-07T20:24:45.539Z,10.73
2018-10-07T20:27:14.129Z,10.70
2018-10-07T20:29:44.369Z,10.37
2018-10-07T20:32:12.726Z,10.63
2018-10-07T20:34:41.845Z,10.19
2018-10-07T20:37:10.177Z,10.56
2018-10-07T20:39:38.469Z,10.52
2018-10-07T20:42:07.421Z,10.51
2018-10-07T20:44:35.956Z,10.49
2018-10-07T20:47:04.265Z,10.48
2018-10-07T20:49:32.983Z,10.45
2018-10-07T20:52:01.348Z,10.43
2018-10-07T20:54:29.851Z,10.37
2018-10-07T20:56:58.418Z,10.29
2018-10-07T20:59:27.196Z,10.23
2018-10-07T21:01:55.690Z,10.16
2018-10-07T21:04:24.322Z,10.08
2018-10-07T21:06:52.864Z,10.03
2018-10-07T21:09:21.132Z,9.97
2018-10-07T21:11:50.024Z,9.90
2018-10-07T21:14:18.324Z,9.84
2018-10-07T21:16:46.667Z,9.78
2018-10-07T21:19:15.290Z,9.72
2018-10-07T21:21:43.796Z,9.44
2018-10-07T21:24:12.132Z,9.58
2018-10-07T21:26:41.116Z,9.52
2018-10-07T21:29:09.397Z,9.46
2018-10-07T21:31:37.712Z,9.41
2018-10-07T21:34:06.300Z,9.36
2018-10-07T21:36:34.972Z,9.31
2018-10-07T21:39:04.665Z,9.29
2018-10-07T21:41:33.437Z,9.26
2018-10-07T21:44:01.826Z,9.24
2018-10-07T21:46:30.172Z,9.09
2018-10-07T21:48:59.079Z,9.19
2018-10-07T21:51:29.425Z,9.16
2018-10-07T21:53:58.310Z,8.90
2018-10-07T21:56:26.989Z,8.66
2018-10-07T21:58:55.879Z,9.08
2018-10-07T22:01:24.192Z,8.97
2018-10-07T22:03:52.750Z,8.98
2018-10-07T22:06:21.472Z,9.06
2018-10-07T22:08:50.325Z,9.04
2018-10-07T22:11:19.312Z,9.02
2018-10-07T22:13:48.064Z,8.69
2018-10-07T22:16:16.329Z,9.03
2018-10-07T22:18:45.373Z,8.82
2018-10-07T22:21:14.392Z,9.07
2018-10-07T22:23:42.683Z,8.96
2018-10-07T22:26:11.503Z,8.92
2018-10-07T22:28:40.109Z,9.00
2018-10-07T22:31:08.435Z,8.97
2018-10-07T22:33:37.255Z,8.95
2018-10-07T22:36:05.938Z,8.89
2018-10-07T22:38:34.574Z,8.79
2018-10-07T22:41:03.350Z,8.71
2018-10-07T22:43:32.429Z,8.64
2018-10-07T22:46:00.696Z,8.62
2018-10-07T22:48:29.316Z,8.43
2018-10-07T22:50:57.716Z,8.38
2018-10-07T22:53:26.108Z,8.49
2018-10-07T22:55:54.937Z,8.44
2018-10-07T22:58:23.313Z,8.44
2018-10-07T23:00:51.990Z,8.43
2018-10-07T23:03:20.883Z,8.33
2018-10-07T23:05:49.208Z,8.46
2018-10-07T23:08:17.717Z,8.47
2018-10-07T23:10:46.789Z,8.49
2018-10-07T23:13:15.477Z,8.51
2018-10-07T23:15:44.149Z,8.53
2018-10-07T23:18:13.048Z,8.54
2018-10-07T23:20:41.562Z,8.41
2018-10-07T23:23:10.209Z,8.20
2018-10-07T23:25:39.125Z,8.53
2018-10-07T23:28:07.613Z,8.21
2018-10-07T23:30:36.142Z,8.53
2018-10-07T23:33:04.957Z,8.52
2018-10-07T23:35:33.281Z,8.53
2018-10-07T23:38:01.978Z,8.52
2018-10-07T23:40:30.944Z,8.48
2018-10-07T23:42:59.664Z,8.45
2018-10-07T23:45:28.387Z,8.41
2018-10-07T23:47:57.501Z,8.37
2018-10-07T23:50:26.329Z,8.33
2018-10-07T23:52:54.861Z,8.29
2018-10-07T23:55:28.476Z,8.26
2018-10-07T23:57:56.949Z,8.26
